Time;durP1;ratioP1;P1;durP2;ratioP2;P2;SDS_P1;SDS_P2;PMS_P1;PMS_P2;Temp;Humidity;BMP_temperature;BMP_pressure;BME280_temperature;BME280_humidity;BME280_pressure;Samples;Min_cycle;Max_cycle;Signal;HPM_P1;HPM_P2
2022/11/27 00:01:12;;;;;;;0.70;0.70;;;12.30;95.80;;;;;;5007408;28;20026;-77
2022/11/27 00:03:39;;;;;;;0.70;0.70;;;12.20;95.80;;;;;;5010801;28;20061;-76
2022/11/27 00:06:06;;;;;;;0.80;0.80;;;12.20;96.00;;;;;;5009603;28;20526;-76
2022/11/27 00:08:32;;;;;;;0.60;0.60;;;12.20;95.80;;;;;;5009149;28;20138;-76
2022/11/27 00:11:07;;;;;;;0.70;0.70;;;12.20;95.80;;;;;;5010308;28;20033;-76
2022/11/27 00:13:33;;;;;;;0.80;0.80;;;12.20;95.80;;;;;;5010580;28;20029;-76
2022/11/27 00:15:59;;;;;;;;;;;12.20;95.80;;;;;;5009099;28;20037;-77
2022/11/27 00:18:25;;;;;;;0.90;0.90;;;12.10;95.70;;;;;;5010549;28;19909;-76
2022/11/27 00:20:51;;;;;;;0.80;0.80;;;12.10;95.70;;;;;;5010371;28;20095;-75
2022/11/27 00:23:16;;;;;;;0.80;0.80;;;12.10;95.70;;;;;;5009166;28;20044;-76
2022/11/27 00:25:52;;;;;;;0.80;0.80;;;12.00;95.70;;;;;;5009032;28;20026;-76
2022/11/27 00:28:18;;;;;;;0.80;0.80;;;12.00;95.70;;;;;;5008790;28;20026;-76
2022/11/27 00:30:44;;;;;;;0.70;0.70;;;12.00;95.70;;;;;;5010138;28;20094;-77
2022/11/27 00:33:10;;;;;;;0.90;0.90;;;12.00;95.70;;;;;;5008949;28;20463;-76
2022/11/27 00:35:37;;;;;;;1.05;1.05;;;11.90;95.70;;;;;;5008862;28;20083;-78
2022/11/27 00:38:03;;;;;;;1.35;1.25;;;11.90;95.70;;;;;;5009915;28;20042;-77
2022/11/27 00:40:29;;;;;;;1.27;1.17;;;11.80;95.60;;;;;;5008633;28;20041;-77
2022/11/27 00:42:54;;;;;;;1.40;1.30;;;11.80;95.60;;;;;;5009934;28;20030;-77
2022/11/27 00:45:20;;;;;;;3.03;2.83;;;11.80;95.60;;;;;;5009978;28;20037;-77
2022/11/27 00:47:46;;;;;;;2.60;2.40;;;11.70;95.60;;;;;;5008632;28;20056;-76
2022/11/27 00:50:12;;;;;;;3.60;3.30;;;11.70;95.60;;;;;;5008422;28;20453;-76
2022/11/27 00:52:38;;;;;;;3.92;3.63;;;11.70;95.60;;;;;;5008509;28;20128;-76
2022/11/27 00:55:04;;;;;;;4.78;4.47;;;11.60;95.60;;;;;;5009510;28;20061;-76
2022/11/27 00:57:29;;;;;;;5.82;5.53;;;11.60;95.60;;;;;;5009345;28;20041;-77
2022/11/27 00:59:55;;;;;;;5.55;5.25;;;11.50;95.60;;;;;;5008116;28;20038;-74
2022/11/27 01:02:21;;;;;;;5.85;5.55;;;11.50;95.60;;;;;;5009370;28;20038;-75
2022/11/27 01:04:48;;;;;;;5.78;5.47;;;11.50;95.60;;;;;;5008628;28;20133;-75
2022/11/27 01:07:14;;;;;;;6.57;6.18;;;11.40;95.60;;;;;;5008282;28;20053;-75
2022/11/27 01:09:40;;;;;;;6.15;5.85;;;11.40;95.60;;;;;;5009300;28;20076;-74
2022/11/27 01:12:06;;;;;;;5.20;4.90;;;11.40;95.60;;;;;;5008576;28;20041;-75
2022/11/27 01:14:32;;;;;;;5.30;5.00;;;11.40;95.60;;;;;;5009339;28;20026;-75
2022/11/27 01:16:58;;;;;;;5.10;4.80;;;11.30;95.60;;;;;;5007471;28;20042;-75
2022/11/27 01:19:24;;;;;;;3.30;3.10;;;11.30;95.60;;;;;;4991532;28;20061;-75
2022/11/27 01:21:50;;;;;;;3.72;3.42;;;11.30;95.60;;;;;;5008158;28;20076;-74
2022/11/27 01:24:16;;;;;;;3.20;3.00;;;11.30;95.60;;;;;;5007854;28;20026;-75
2022/11/27 01:26:42;;;;;;;2.58;2.38;;;11.30;95.60;;;;;;5008129;28;20081;-74
2022/11/27 01:29:08;;;;;;;3.10;2.90;;;11.30;95.60;;;;;;5009582;28;20026;-75
2022/11/27 01:31:34;;;;;;;3.53;2.95;;;11.30;95.60;;;;;;5007963;28;20304;-75
2022/11/27 01:34:06;;;;;;;3.20;3.00;;;11.30;95.60;;;;;;4991483;28;20034;-75
2022/11/27 01:36:33;;;;;;;3.67;3.38;;;11.30;95.80;;;;;;5009095;28;20037;-75
2022/11/27 01:38:59;;;;;;;3.53;3.22;;;11.30;95.50;;;;;;5009176;28;20045;-75
2022/11/27 01:41:29;;;;;;;3.70;3.40;;;11.30;95.50;;;;;;5007993;28;20026;-75
2022/11/27 01:44:00;;;;;;;5.75;5.45;;;11.20;95.50;;;;;;5007809;28;20018;-75
2022/11/27 01:46:29;;;;;;;6.53;6.13;;;11.20;95.50;;;;;;5009001;28;20021;-75
2022/11/27 01:49:10;;;;;;;7.18;6.78;;;11.20;95.50;;;;;;5007558;28;20029;-75
2022/11/27 01:52:08;;;;;;;7.95;7.50;;;11.20;95.50;;;;;;5007497;28;20135;-75
2022/11/27 01:54:56;;;;;;;10.30;9.80;;;11.20;95.50;;;;;;5007531;28;20037;-75
2022/11/27 01:57:37;;;;;;;9.20;8.80;;;11.20;95.50;;;;;;5008446;28;20042;-75
2022/11/27 02:00:07;;;;;;;9.90;9.40;;;11.20;95.50;;;;;;5008734;28;20446;-75
2022/11/27 02:02:32;;;;;;;9.95;9.45;;;11.20;95.50;;;;;;5008613;28;20503;-75
2022/11/27 02:04:58;;;;;;;9.65;9.15;;;11.20;95.60;;;;;;5007067;28;20022;-75
2022/11/27 02:07:24;;;;;;;9.93;9.43;;;11.10;95.50;;;;;;5008416;28;20076;-75
2022/11/27 02:09:50;;;;;;;11.80;11.30;;;11.10;95.50;;;;;;5007522;28;20042;-75
2022/11/27 02:12:25;;;;;;;13.23;12.63;;;11.10;95.50;;;;;;5040458;28;20332;-75
2022/11/27 02:14:59;;;;;;;15.52;14.85;;;11.10;95.50;;;;;;5008494;28;20132;-75
2022/11/27 02:17:28;;;;;;;17.73;17.02;;;11.10;95.50;;;;;;5006888;28;20045;-75
2022/11/27 02:20:14;;;;;;;19.35;18.55;;;11.10;95.50;;;;;;5008227;28;20504;-75
2022/11/27 02:22:42;;;;;;;22.38;21.48;;;11.00;95.40;;;;;;5010893;28;20034;-75
2022/11/27 02:25:23;;;;;;;20.55;19.75;;;11.00;95.40;;;;;;5006893;28;20084;-75
2022/11/27 02:28:15;;;;;;;19.50;18.70;;;11.00;95.40;;;;;;5006712;28;20121;-75
2022/11/27 02:30:49;;;;;;;19.80;19.00;;;11.00;95.50;;;;;;5008225;28;20517;-75
2022/11/27 02:33:20;;;;;;;18.80;18.00;;;11.00;95.70;;;;;;5008057;28;20030;-75
2022/11/27 02:35:59;;;;;;;18.45;17.67;;;10.90;95.40;;;;;;5008135;28;20021;-75
2022/11/27 02:38:30;;;;;;;19.50;18.70;;;10.90;95.40;;;;;;5007968;28;20025;-75
2022/11/27 02:41:06;;;;;;;18.92;18.13;;;10.90;95.40;;;;;;5008187;28;20053;-75
2022/11/27 02:43:45;;;;;;;17.55;16.85;;;10.90;95.50;;;;;;5008142;28;20414;-76
2022/11/27 02:46:13;;;;;;;16.48;15.77;;;10.90;95.50;;;;;;5008576;28;20034;-75
2022/11/27 02:49:10;;;;;;;16.48;15.77;;;10.90;95.50;;;;;;5006710;28;20059;-75
2022/11/27 02:51:41;;;;;;;16.70;16.00;;;10.90;95.40;;;;;;5007639;28;20034;-75
2022/11/27 02:54:11;;;;;;;17.65;16.95;;;10.80;95.40;;;;;;5007890;28;20144;-75
2022/11/27 02:56:39;;;;;;;15.95;15.25;;;10.80;95.40;;;;;;5008138;28;20022;-75
2022/11/27 02:59:09;;;;;;;16.70;16.00;;;10.80;95.40;;;;;;5007769;28;20033;-75
2022/11/27 03:01:40;;;;;;;16.58;15.88;;;10.80;95.40;;;;;;5007704;28;20433;-75
2022/11/27 03:04:10;;;;;;;16.33;15.63;;;10.80;95.50;;;;;;5007722;28;20021;-75
2022/11/27 03:06:46;;;;;;;16.15;15.45;;;10.80;95.50;;;;;;5007887;28;20018;-75
2022/11/27 03:09:13;;;;;;;17.10;16.40;;;10.80;95.50;;;;;;5006637;28;20030;-75
2022/11/27 03:11:39;;;;;;;15.73;15.02;;;10.80;95.50;;;;;;5007553;28;20035;-75
2022/11/27 03:14:09;;;;;;;14.65;14.05;;;10.80;95.50;;;;;;5007699;28;20033;-75
2022/11/27 03:17:07;;;;;;;14.30;13.70;;;10.80;95.50;;;;;;5007382;28;20038;-75
2022/11/27 03:19:40;;;;;;;15.70;15.00;;;10.80;95.50;;;;;;5007709;28;20033;-75
2022/11/27 03:22:05;;;;;;;15.65;14.95;;;10.80;95.50;;;;;;5007705;28;20485;-75
2022/11/27 03:24:34;;;;;;;14.05;13.45;;;10.80;95.50;;;;;;5022713;28;20034;-75
2022/11/27 03:27:00;;;;;;;13.90;13.30;;;10.80;95.50;;;;;;5007584;28;20406;-75
2022/11/27 03:29:43;;;;;;;14.45;13.85;;;10.80;95.50;;;;;;5007633;28;20030;-75
2022/11/27 03:32:09;;;;;;;15.70;15.00;;;10.80;95.50;;;;;;5007572;28;20022;-75
2022/11/27 03:34:35;;;;;;;16.20;15.50;;;10.70;95.40;;;;;;5039180;28;20026;-75
2022/11/27 03:37:01;;;;;;;;;;;10.70;95.40;;;;;;5009977;28;20041;-75
2022/11/27 03:39:28;;;;;;;18.48;17.70;;;10.70;95.40;;;;;;5011240;28;19917;-75
2022/11/27 03:42:06;;;;;;;16.85;16.15;;;10.70;95.40;;;;;;5011265;28;20106;-75
2022/11/27 03:44:43;;;;;;;17.73;17.02;;;10.70;95.40;;;;;;5010075;28;20070;-75
2022/11/27 03:47:46;;;;;;;16.80;16.10;;;10.70;95.40;;;;;;5011129;28;20071;-75
2022/11/27 03:50:20;;;;;;;18.30;17.55;;;10.60;95.40;;;;;;5011204;28;20062;-75
2022/11/27 03:53:13;;;;;;;17.77;17.08;;;10.60;95.40;;;;;;5011068;28;20510;-75
2022/11/27 03:55:45;;;;;;;17.63;16.92;;;10.60;95.40;;;;;;5011182;28;20034;-75
2022/11/27 03:58:29;;;;;;;18.48;17.67;;;10.50;95.30;;;;;;5009719;28;20456;-75
2022/11/27 04:00:57;;;;;;;20.23;19.42;;;10.50;95.30;;;;;;5010953;28;20032;-75
2022/11/27 04:03:26;;;;;;;22.25;21.35;;;10.40;95.30;;;;;;5010710;28;20230;-75
2022/11/27 04:05:52;;;;;;;24.15;23.23;;;10.40;95.30;;;;;;5010918;28;20494;-74
2022/11/27 04:08:18;;;;;;;24.20;23.30;;;10.40;95.30;;;;;;5010502;28;20050;-75
2022/11/27 04:10:44;;;;;;;25.35;24.35;;;10.30;95.30;;;;;;5010162;28;20398;-75
2022/11/27 04:13:09;;;;;;;25.80;24.80;;;10.30;95.30;;;;;;5009038;28;20037;-75
2022/11/27 04:15:35;;;;;;;26.67;25.67;;;10.20;95.30;;;;;;5009159;28;20045;-75
2022/11/27 04:18:01;;;;;;;26.23;25.23;;;10.20;95.40;;;;;;5042332;28;20502;-75
2022/11/27 04:20:28;;;;;;;25.70;24.70;;;10.20;95.40;;;;;;5026078;28;20121;-75
2022/11/27 04:22:54;;;;;;;27.10;26.10;;;10.20;95.40;;;;;;5010653;28;20028;-75
2022/11/27 04:25:20;;;;;;;29.35;28.25;;;10.20;95.30;;;;;;5025763;28;20022;-75
2022/11/27 04:27:46;;;;;;;27.60;26.50;;;10.20;95.30;;;;;;5009055;28;20030;-75
2022/11/27 04:30:12;;;;;;;27.08;26.08;;;10.10;95.30;;;;;;5009194;28;20084;-74
2022/11/27 04:32:38;;;;;;;;;;;10.10;95.30;;;;;;5010828;28;20038;-75
2022/11/27 04:35:04;;;;;;;26.98;25.98;;;10.10;95.40;;;;;;5009107;28;19928;-75
2022/11/27 04:37:29;;;;;;;28.25;27.15;;;10.00;95.30;;;;;;5042069;28;20029;-75
2022/11/27 04:39:55;;;;;;;29.33;28.23;;;10.00;95.30;;;;;;5010555;28;20506;-75
2022/11/27 04:42:21;;;;;;;28.08;26.98;;;10.00;95.30;;;;;;5010354;28;20079;-75
2022/11/27 04:44:47;;;;;;;30.50;29.30;;;9.90;95.30;;;;;;5008787;28;20042;-75
2022/11/27 04:47:12;;;;;;;28.45;27.35;;;9.90;95.30;;;;;;5010172;28;20022;-75
2022/11/27 04:49:38;;;;;;;26.90;25.90;;;9.90;95.30;;;;;;5025401;28;20034;-75
2022/11/27 04:52:04;;;;;;;26.77;25.77;;;9.80;95.30;;;;;;5010477;28;20033;-75
2022/11/27 04:54:30;;;;;;;28.10;27.00;;;9.80;95.30;;;;;;5025151;28;20038;-75
2022/11/27 04:56:55;;;;;;;26.70;25.70;;;9.80;95.30;;;;;;5009874;28;20033;-75
2022/11/27 04:59:22;;;;;;;29.15;28.05;;;9.80;95.30;;;;;;5024596;28;20204;-75
2022/11/27 05:01:47;;;;;;;28.13;27.02;;;9.80;95.30;;;;;;5008964;28;20057;-75
2022/11/27 05:04:13;;;;;;;26.27;25.27;;;9.80;95.30;;;;;;5009856;28;20064;-75
2022/11/27 05:06:39;;;;;;;26.50;25.50;;;9.80;95.30;;;;;;5010211;28;20030;-75
2022/11/27 05:09:04;;;;;;;27.38;26.30;;;9.70;95.30;;;;;;5009751;28;20038;-75
2022/11/27 05:11:31;;;;;;;25.30;24.30;;;9.70;95.30;;;;;;5008637;28;20042;-75
2022/11/27 05:14:16;;;;;;;25.40;24.40;;;9.70;95.30;;;;;;5008344;28;20136;-75
2022/11/27 05:16:53;;;;;;;26.73;25.73;;;9.70;95.30;;;;;;5009506;28;20034;-75
2022/11/27 05:19:21;;;;;;;25.48;24.48;;;9.60;95.20;;;;;;5009471;28;20125;-75
2022/11/27 05:21:47;;;;;;;25.30;24.30;;;9.60;95.20;;;;;;5009520;28;20038;-75
2022/11/27 05:24:15;;;;;;;27.33;26.27;;;9.60;95.20;;;;;;5009618;28;20026;-75
2022/11/27 05:26:41;;;;;;;28.20;27.10;;;9.50;95.20;;;;;;5009437;28;20454;-75
2022/11/27 05:29:08;;;;;;;27.77;26.67;;;9.50;95.20;;;;;;5009372;28;20113;-75
2022/11/27 05:31:35;;;;;;;26.80;25.80;;;9.50;95.20;;;;;;5007937;28;20032;-75
2022/11/27 05:34:01;;;;;;;26.48;25.48;;;9.50;95.20;;;;;;5040875;28;20036;-75
2022/11/27 05:36:27;;;;;;;27.40;26.30;;;9.40;95.20;;;;;;5009325;28;20037;-75
2022/11/27 05:38:52;;;;;;;;;;;9.40;95.30;;;;;;5009580;28;20026;-75
2022/11/27 05:41:18;;;;;;;26.73;25.73;;;9.40;95.20;;;;;;5024289;28;20424;-75
2022/11/27 05:43:44;;;;;;;29.95;28.85;;;9.40;95.20;;;;;;5007822;28;20022;-75
2022/11/27 05:46:13;;;;;;;29.05;27.95;;;9.30;95.20;;;;;;5008920;28;20423;-75
2022/11/27 05:48:38;;;;;;;28.50;27.40;;;9.30;95.20;;;;;;5007497;28;20577;-75
2022/11/27 05:51:04;;;;;;;31.00;29.80;;;9.30;95.30;;;;;;5024110;28;20050;-75
2022/11/27 05:53:30;;;;;;;30.08;28.98;;;9.30;95.20;;;;;;5007654;28;20044;-75
2022/11/27 05:56:08;;;;;;;31.60;30.40;;;9.30;95.20;;;;;;5009046;28;20021;-75
2022/11/27 05:58:34;;;;;;;32.15;30.95;;;9.30;95.20;;;;;;5008226;28;20058;-75
2022/11/27 06:01:00;;;;;;;29.75;28.65;;;9.30;95.20;;;;;;5023853;28;20026;-75
2022/11/27 06:03:26;;;;;;;28.30;27.20;;;9.30;95.30;;;;;;5040467;28;20049;-75
2022/11/27 06:05:52;;;;;;;31.65;30.45;;;9.30;95.30;;;;;;5008785;28;20049;-75
2022/11/27 06:08:18;;;;;;;;;;;9.30;95.30;;;;;;5009068;28;20026;-75
2022/11/27 06:10:45;;;;;;;30.25;29.10;;;9.30;95.30;;;;;;5008684;28;20373;-75
2022/11/27 06:13:10;;;;;;;31.55;30.35;;;9.30;95.30;;;;;;5008644;28;20116;-75
2022/11/27 06:15:37;;;;;;;31.35;30.15;;;9.30;95.20;;;;;;5040223;28;20185;-75
2022/11/27 06:18:03;;;;;;;32.53;31.33;;;9.30;95.20;;;;;;5039600;28;20055;-75
2022/11/27 06:20:29;;;;;;;31.90;30.70;;;9.30;95.20;;;;;;5008613;28;20025;-75
2022/11/27 06:22:56;;;;;;;30.85;29.65;;;9.20;95.20;;;;;;5023487;28;20055;-75
2022/11/27 06:25:22;;;;;;;32.45;31.25;;;9.20;95.20;;;;;;5040030;28;20060;-75
2022/11/27 06:27:48;;;;;;;;;;;9.20;95.20;;;;;;5009205;28;20032;-75
2022/11/27 06:30:14;;;;;;;33.90;32.60;;;9.20;95.20;;;;;;5008239;28;19909;-75
2022/11/27 06:32:40;;;;;;;33.58;32.28;;;9.20;95.20;;;;;;5040194;28;20065;-75
2022/11/27 06:35:06;;;;;;;35.78;34.47;;;9.20;95.20;;;;;;5008254;28;20423;-75
2022/11/27 06:37:31;;;;;;;35.13;33.83;;;9.20;95.20;;;;;;5006945;28;20029;-75
2022/11/27 06:39:57;;;;;;;34.33;33.03;;;9.20;95.20;;;;;;5007967;28;20356;-75
2022/11/27 06:42:23;;;;;;;35.03;33.72;;;9.20;95.30;;;;;;5023243;28;20031;-75
2022/11/27 06:44:48;;;;;;;32.30;31.10;;;9.20;95.30;;;;;;5040082;28;20489;-75
2022/11/27 06:47:14;;;;;;;34.67;33.38;;;9.20;95.30;;;;;;5039552;28;20030;-75
2022/11/27 06:49:40;;;;;;;34.10;32.80;;;9.20;95.50;;;;;;5006629;28;20044;-75
2022/11/27 06:52:05;;;;;;;35.10;33.80;;;9.20;95.30;;;;;;5039750;28;20112;-75
2022/11/27 06:54:31;;;;;;;36.85;35.45;;;9.20;95.30;;;;;;5006887;28;20039;-75
2022/11/27 06:56:57;;;;;;;36.50;35.10;;;9.30;95.30;;;;;;5022887;28;20033;-75
2022/11/27 06:59:23;;;;;;;37.05;35.65;;;9.30;95.30;;;;;;5039463;28;20109;-75
2022/11/27 07:01:49;;;;;;;37.00;35.60;;;9.20;95.30;;;;;;5006718;28;20475;-75
2022/11/27 07:04:15;;;;;;;36.55;35.15;;;9.30;95.30;;;;;;5006500;28;20036;-75
2022/11/27 07:06:41;;;;;;;;;;;9.30;95.30;;;;;;5008088;28;20060;-75
2022/11/27 07:09:08;;;;;;;35.50;34.20;;;9.30;95.30;;;;;;5006269;28;19992;-75
2022/11/27 07:11:35;;;;;;;36.88;35.47;;;9.30;95.30;;;;;;5010695;28;20056;-75
2022/11/27 07:14:01;;;;;;;;;;;9.30;95.30;;;;;;5012339;28;20414;-75
2022/11/27 07:16:29;;;;;;;38.80;37.35;;;9.30;95.30;;;;;;5011719;28;19917;-75
2022/11/27 07:18:58;;;;;;;38.92;37.47;;;9.30;95.20;;;;;;5010496;28;20038;-74
2022/11/27 07:21:24;;;;;;;39.83;38.33;;;9.30;95.20;;;;;;5011848;28;20026;-75
2022/11/27 07:23:50;;;;;;;41.85;40.28;;;9.30;95.20;;;;;;5011757;28;20033;-76
2022/11/27 07:26:21;;;;;;;40.63;39.13;;;9.20;95.20;;;;;;5011627;28;20018;-75
2022/11/27 07:28:47;;;;;;;41.63;40.08;;;9.20;95.40;;;;;;5010484;28;20391;-75
2022/11/27 07:31:16;;;;;;;43.20;41.60;;;9.20;95.30;;;;;;5011642;28;20052;-75
2022/11/27 07:33:42;;;;;;;42.47;40.88;;;9.20;95.20;;;;;;5010124;28;20437;-75
2022/11/27 07:36:11;;;;;;;43.78;42.17;;;9.20;95.20;;;;;;5043183;28;20022;-75
2022/11/27 07:38:37;;;;;;;43.30;41.70;;;9.20;95.20;;;;;;5011270;28;20033;-75
2022/11/27 07:41:04;;;;;;;45.00;43.30;;;9.20;95.20;;;;;;5011407;28;20026;-75
2022/11/27 07:43:32;;;;;;;46.90;45.20;;;9.10;95.20;;;;;;5026461;28;20426;-75
2022/11/27 07:45:58;;;;;;;45.20;43.50;;;9.10;95.20;;;;;;5011395;28;20030;-75
2022/11/27 07:48:24;;;;;;;;;;;9.10;95.20;;;;;;5043313;28;20382;-75
2022/11/27 07:50:50;;;;;;;44.08;42.47;;;9.10;95.30;;;;;;5011086;28;19909;-75
2022/11/27 07:53:16;;;;;;;47.25;45.47;;;9.10;95.30;;;;;;5026241;28;20030;-75
2022/11/27 07:55:42;;;;;;;44.55;42.85;;;9.10;95.30;;;;;;5009700;28;20101;-75
2022/11/27 07:58:08;;;;;;;47.00;45.22;;;9.10;95.30;;;;;;5009701;28;20026;-75
2022/11/27 08:00:34;;;;;;;;;;;9.10;95.30;;;;;;5011333;28;20133;-75
2022/11/27 08:03:00;;;;;;;48.65;46.85;;;9.10;95.30;;;;;;5009679;28;19992;-75
2022/11/27 08:05:26;;;;;;;48.97;47.17;;;9.20;95.20;;;;;;5009543;28;20058;-75
2022/11/27 08:07:52;;;;;;;48.67;46.88;;;9.10;95.30;;;;;;5010850;28;20423;-75
2022/11/27 08:10:18;;;;;;;50.85;48.95;;;9.20;95.30;;;;;;5025816;28;20113;-75
2022/11/27 08:12:43;;;;;;;52.88;50.88;;;9.20;95.30;;;;;;5010684;28;20022;-74
2022/11/27 08:15:10;;;;;;;52.95;50.95;;;9.20;95.30;;;;;;5010693;28;20065;-74
2022/11/27 08:17:35;;;;;;;;;;;9.20;95.30;;;;;;5009541;28;20049;-74
2022/11/27 08:20:01;;;;;;;51.80;49.85;;;9.20;95.30;;;;;;5010643;28;20374;-75
2022/11/27 08:22:27;;;;;;;53.33;51.33;;;9.10;95.20;;;;;;5010267;28;20032;-75
2022/11/27 08:24:53;;;;;;;52.78;50.78;;;9.20;95.30;;;;;;5042238;28;20124;-74
2022/11/27 08:27:19;;;;;;;51.50;49.55;;;9.20;95.20;;;;;;5010444;28;20534;-74
2022/11/27 08:29:45;;;;;;;;;;;9.20;95.30;;;;;;5009372;28;20030;-75
2022/11/27 08:32:10;;;;;;;50.15;48.25;;;9.20;95.30;;;;;;5010323;28;20300;-74
2022/11/27 08:34:36;;;;;;;49.85;47.95;;;9.20;95.30;;;;;;5042038;28;20090;-74
2022/11/27 08:37:04;;;;;;;50.25;48.35;;;9.30;95.30;;;;;;5009044;28;20041;-74
2022/11/27 08:39:29;;;;;;;47.85;46.05;;;9.30;95.30;;;;;;5010270;28;20117;-75
2022/11/27 08:41:55;;;;;;;48.45;46.65;;;9.30;95.30;;;;;;5010213;28;20534;-75
2022/11/27 08:44:21;;;;;;;49.80;47.90;;;9.30;95.30;;;;;;5008907;28;20400;-75
2022/11/27 08:46:46;;;;;;;47.05;45.25;;;9.40;95.30;;;;;;5008839;28;20116;-75
2022/11/27 08:49:12;;;;;;;47.60;45.80;;;9.40;95.30;;;;;;5041909;28;20374;-75
2022/11/27 08:51:38;;;;;;;46.25;44.55;;;9.50;95.40;;;;;;5041419;28;20034;-75
2022/11/27 08:54:04;;;;;;;47.88;46.08;;;9.50;95.40;;;;;;5024892;28;20483;-75
2022/11/27 08:56:29;;;;;;;45.88;44.17;;;9.60;95.40;;;;;;5009839;28;20056;-74
2022/11/27 08:58:56;;;;;;;40.17;38.67;;;9.70;95.50;;;;;;5041464;28;20501;-75
2022/11/27 09:01:22;;;;;;;;;;;9.90;95.80;;;;;;5010159;28;20431;-74
2022/11/27 09:03:49;;;;;;;35.97;34.58;;;10.30;96.00;;;;;;5009641;28;20358;-75
2022/11/27 09:06:17;;;;;;;35.38;34.08;;;10.60;95.90;;;;;;5041579;28;20034;-75
2022/11/27 09:08:43;;;;;;;34.45;33.15;;;10.90;95.80;;;;;;5008220;28;20026;-75
2022/11/27 09:11:11;;;;;;;39.88;38.38;;;11.10;95.70;;;;;;5008248;28;20022;-74
2022/11/27 09:13:38;;;;;;;39.95;38.45;;;11.20;95.50;;;;;;5009410;28;20475;-75
2022/11/27 09:16:07;;;;;;;40.30;38.80;;;11.30;95.40;;;;;;5009101;28;20445;-76
2022/11/27 09:18:33;;;;;;;40.33;38.83;;;11.30;95.30;;;;;;5009292;28;20040;-75
2022/11/27 09:21:02;;;;;;;40.20;38.70;;;11.30;95.30;;;;;;5024767;28;20068;-75
2022/11/27 09:23:29;;;;;;;39.47;37.97;;;11.30;95.40;;;;;;5008051;28;20053;-75
2022/11/27 09:25:59;;;;;;;36.00;34.60;;;11.40;95.50;;;;;;5007853;28;20490;-75
2022/11/27 09:28:25;;;;;;;34.20;32.90;;;11.60;95.70;;;;;;5007537;28;20475;-75
2022/11/27 09:30:56;;;;;;;35.55;34.25;;;11.80;95.80;;;;;;5040613;28;20113;-75
2022/11/27 09:33:23;;;;;;;32.10;30.90;;;11.90;95.70;;;;;;5008497;28;20088;-75
2022/11/27 09:35:49;;;;;;;31.00;29.80;;;12.10;95.70;;;;;;5024233;28;20117;-75
2022/11/27 09:38:15;;;;;;;27.15;26.13;;;12.20;95.70;;;;;;5009017;28;20124;-75
2022/11/27 09:40:49;;;;;;;24.80;23.80;;;12.30;95.70;;;;;;5007545;28;20044;-75
2022/11/27 09:43:16;;;;;;;18.15;17.42;;;12.60;96.00;;;;;;5009304;28;20022;-75
2022/11/27 09:45:54;;;;;;;16.17;15.48;;;13.10;96.20;;;;;;5007478;28;20041;-75
2022/11/27 09:48:33;;;;;;;13.52;12.93;;;13.50;96.20;;;;;;5007590;28;20022;-75
2022/11/27 09:51:02;;;;;;;11.88;11.38;;;14.00;96.20;;;;;;5008759;28;20429;-75
2022/11/27 09:53:48;;;;;;;11.95;11.45;;;14.40;96.00;;;;;;5008824;28;20022;-75
2022/11/27 09:56:17;;;;;;;10.68;10.18;;;14.70;95.90;;;;;;5008053;28;20481;-75
2022/11/27 09:58:55;;;;;;;8.98;8.57;;;15.00;96.00;;;;;;5007978;28;20076;-75
2022/11/27 10:01:31;;;;;;;6.95;6.55;;;15.30;96.00;;;;;;5006905;28;20026;-75
2022/11/27 10:03:59;;;;;;;4.55;4.25;;;15.70;96.00;;;;;;5008416;28;20044;-75
2022/11/27 10:06:35;;;;;;;2.85;2.65;;;16.00;95.90;;;;;;5008367;28;20026;-75
2022/11/27 10:09:40;;;;;;;1.42;1.33;;;16.20;96.00;;;;;;5008074;28;20513;-75
2022/11/27 10:12:21;;;;;;;0.77;0.77;;;16.60;96.00;;;;;;5008361;28;20035;-75
2022/11/27 10:15:05;;;;;;;0.40;0.40;;;16.90;95.90;;;;;;5007512;28;20398;-74
2022/11/27 10:17:39;;;;;;;0.28;0.28;;;17.10;95.90;;;;;;5007143;28;20057;-75
2022/11/27 10:20:30;;;;;;;0.30;0.30;;;17.20;96.00;;;;;;5007806;28;20054;-75
2022/11/27 10:23:08;;;;;;;0.20;0.20;;;17.40;96.00;;;;;;5007409;28;20614;-75
2022/11/27 10:25:45;;;;;;;0.10;0.10;;;17.60;96.10;;;;;;5008021;28;20039;-75
2022/11/27 10:28:31;;;;;;;0.00;0.00;;;17.80;96.10;;;;;;5007276;28;20026;-75
2022/11/27 10:31:13;;;;;;;0.00;0.00;;;17.60;95.30;;;;;;5007522;28;20030;-75
2022/11/27 10:34:14;;;;;;;0.30;0.30;;;16.80;94.70;;;;;;5007625;28;20030;-75
2022/11/27 10:36:47;;;;;;;0.57;0.57;;;15.80;94.90;;;;;;5007227;28;20029;-74
2022/11/27 10:39:21;;;;;;;0.40;0.40;;;15.40;95.70;;;;;;5008875;28;20018;-75
2022/11/27 10:42:01;;;;;;;0.30;0.30;;;15.70;96.60;;;;;;5007387;28;20045;-75
2022/11/27 10:44:26;;;;;;;0.20;0.20;;;16.10;96.70;;;;;;5007583;28;20025;-75
2022/11/27 10:46:57;;;;;;;0.10;0.10;;;16.60;96.70;;;;;;5007311;28;20018;-75
2022/11/27 10:49:23;;;;;;;0.10;0.10;;;17.10;96.70;;;;;;5007200;28;20152;-75
2022/11/27 10:51:48;;;;;;;0.10;0.10;;;17.40;96.50;;;;;;5007102;28;20108;-75
2022/11/27 10:54:36;;;;;;;0.10;0.10;;;17.60;96.50;;;;;;5007481;28;20041;-75
2022/11/27 10:57:20;;;;;;;0.10;0.10;;;17.70;96.40;;;;;;5007194;28;20037;-75
2022/11/27 10:59:49;;;;;;;0.10;0.10;;;17.90;96.30;;;;;;5007055;28;20041;-75
2022/11/27 11:02:32;;;;;;;0.00;0.00;;;18.10;96.30;;;;;;5008213;28;20100;-74
2022/11/27 11:05:10;;;;;;;0.00;0.00;;;18.00;95.90;;;;;;5007758;28;20022;-75
2022/11/27 11:07:36;;;;;;;0.00;0.00;;;17.70;95.80;;;;;;5005795;28;20036;-75
2022/11/27 11:10:01;;;;;;;0.00;0.00;;;17.40;95.60;;;;;;5005815;28;20038;-74
2022/11/27 11:12:27;;;;;;;0.10;0.10;;;16.90;95.10;;;;;;5005929;28;20037;-75
2022/11/27 11:14:55;;;;;;;0.15;0.15;;;16.30;95.00;;;;;;5005586;28;20034;-75
2022/11/27 11:17:25;;;;;;;0.30;0.30;;;15.70;95.10;;;;;;5006970;28;20514;-75
2022/11/27 11:19:51;;;;;;;0.55;0.55;;;15.20;95.30;;;;;;5006969;28;20537;-75
2022/11/27 11:22:18;;;;;;;0.88;0.88;;;14.80;95.40;;;;;;5006796;28;20030;-74
2022/11/27 11:24:49;;;;;;;1.45;1.35;;;14.40;95.50;;;;;;5005734;28;20030;-74
2022/11/27 11:27:27;;;;;;;1.80;1.70;;;14.20;95.50;;;;;;5007077;28;20329;-77
2022/11/27 11:29:58;;;;;;;4.22;3.92;;;14.00;95.60;;;;;;5005011;28;20037;-74
2022/11/27 11:32:28;;;;;;;4.85;4.55;;;13.90;95.50;;;;;;5007010;28;20022;-74
2022/11/27 11:35:02;;;;;;;6.18;5.85;;;13.80;95.50;;;;;;5005531;28;20029;-74
2022/11/27 11:37:32;;;;;;;2.95;2.75;;;13.70;95.60;;;;;;5007002;28;20109;-74
2022/11/27 11:40:02;;;;;;;1.95;1.85;;;13.70;95.60;;;;;;5006878;28;20022;-74
2022/11/27 11:42:30;;;;;;;2.00;1.90;;;13.60;95.60;;;;;;5005688;28;20021;-74
2022/11/27 11:45:16;;;;;;;1.80;1.70;;;13.50;95.50;;;;;;5005427;28;20072;-74
2022/11/27 11:47:50;;;;;;;3.25;3.05;;;13.60;95.70;;;;;;5006916;28;20101;-74
2022/11/27 11:50:33;;;;;;;3.63;3.33;;;13.70;95.50;;;;;;5006321;28;20093;-75
2022/11/27 11:53:09;;;;;;;3.83;3.53;;;13.70;95.60;;;;;;5006613;28;20525;-74
2022/11/27 11:55:47;;;;;;;4.30;4.00;;;13.60;95.20;;;;;;5005177;28;20085;-74
2022/11/27 11:58:25;;;;;;;5.25;4.95;;;13.50;95.10;;;;;;5010448;28;20021;-74
2022/11/27 12:01:17;;;;;;;4.53;4.22;;;13.30;95.10;;;;;;5008782;28;20037;-75
2022/11/27 12:04:01;;;;;;;3.30;3.10;;;13.10;95.20;;;;;;5041422;28;20033;-74
2022/11/27 12:06:39;;;;;;;3.67;3.38;;;13.00;95.30;;;;;;5010428;28;20025;-74
2022/11/27 12:09:25;;;;;;;2.65;2.45;;;13.00;95.30;;;;;;5009930;28;20106;-75
2022/11/27 12:12:11;;;;;;;2.50;2.30;;;12.90;95.30;;;;;;5010370;28;20037;-75
2022/11/27 12:14:49;;;;;;;3.05;2.85;;;12.90;95.40;;;;;;5008951;28;20571;-75
2022/11/27 12:17:55;;;;;;;7.15;6.75;;;12.90;95.40;;;;;;5008584;28;20050;-75
2022/11/27 12:20:29;;;;;;;11.82;11.32;;;12.90;95.50;;;;;;5010666;28;20038;-78
2022/11/27 12:23:22;;;;;;;11.60;11.10;;;12.90;95.60;;;;;;5009701;28;20112;-78
2022/11/27 12:26:16;;;;;;;8.85;8.45;;;13.10;95.90;;;;;;5010300;28;20471;-79
2022/11/27 12:28:44;;;;;;;7.70;7.30;;;13.30;95.70;;;;;;5011398;28;20025;-76
2022/11/27 12:31:38;;;;;;;6.05;5.75;;;13.50;95.60;;;;;;5012209;28;20083;-80
2022/11/27 12:34:33;;;;;;;6.28;5.95;;;13.50;95.40;;;;;;5013157;28;20061;-80
2022/11/27 12:37:27;;;;;;;5.53;5.22;;;13.50;95.20;;;;;;5012768;28;20161;-81
2022/11/27 12:39:59;;;;;;;4.25;3.95;;;13.40;95.20;;;;;;5014312;28;20026;-80
2022/11/27 12:42:49;;;;;;;3.75;3.45;;;13.20;95.00;;;;;;5012631;28;20478;-80
2022/11/27 12:45:22;;;;;;;3.60;3.30;;;12.90;95.00;;;;;;5013054;28;20022;-80
2022/11/27 12:47:56;;;;;;;3.13;2.92;;;12.70;95.10;;;;;;5010513;28;20026;-74
2022/11/27 12:50:37;;;;;;;3.05;2.85;;;12.60;95.20;;;;;;5008289;28;20029;-74
2022/11/27 12:53:18;;;;;;;2.90;2.70;;;12.50;95.20;;;;;;5008823;28;20034;-74
2022/11/27 12:56:05;;;;;;;3.08;2.88;;;12.40;95.20;;;;;;5008557;28;20113;-74
2022/11/27 12:58:32;;;;;;;;;;;12.30;95.20;;;;;;5008044;28;20030;-74
2022/11/27 13:01:09;;;;;;;2.95;2.75;;;12.30;95.30;;;;;;5009803;28;20288;-73